»·PEaware :: RNGR801 KNGP-KNGP

RNGR801 :: KNGP-KNGP

FLIGHT INFORMATION

Flight Status: Arrived
Operator: Unknown
More flights by this operator :: More flights under this callsign
Pilot: USN Avenger (31125)
Aircraft: BEECH AIRCRAFT T-6A TEXAN
(TEX2)
More flights by this aircraft type
Origin: KNGP Corpus Christi NAS/Truax
United States
Destination: KNGP Corpus Christi NAS/Truax
United States
More flights between these airports :: More routes between these airports
Route: RUSTY DEPARTURE TO KING4, THEN GOLIAD BEFORE SHAMROCK RENTRY
File this flight plan on PilotEdge
Remarks: Runway 13L, Zombie 1
Altitude:
(Current/Filed)
14,500ft
Speed:
(Current/Filed)
240kts
Departed: 15-Nov-23 01:12 PM
Arrived: 15-Nov-23 02:24 PM
Distance/Time
Traveled:
1nm/1:12
Distance/Time
To Go:
Arrived

Flight Plot

Page will automatically refresh every two minutes.

Flight plan parsing failed; only flown route is shown


Map Options




Map Legend


Flown Route
Filed Route
Departure Airport
Arrival Airport
Navaid (VOR, NDB)
Fix

Horizontal Profiles

Position Reports

Time Latitude Longitude Heading Altitude Ground
Speed
15-Nov-23 13:03 27.698548 -97.284287 158 22ft 0kts
15-Nov-23 13:04 27.698546 -97.284286 158 22ft 0kts
15-Nov-23 13:05 27.698545 -97.284285 158 22ft 0kts
15-Nov-23 13:06 27.698543 -97.284285 158 22ft 0kts
15-Nov-23 13:07 27.698541 -97.284284 159 22ft 0kts
15-Nov-23 13:08 27.699021 -97.285824 336 22ft 10kts
15-Nov-23 13:09 27.697757 -97.288397 225 22ft 19kts
15-Nov-23 13:10 27.695779 -97.290921 224 22ft 0kts
15-Nov-23 13:11 27.694823 -97.291293 137 22ft 9kts
15-Nov-23 13:12 27.683491 -97.277773 126 429ft 142kts
15-Nov-23 13:13 27.652896 -97.227849 95 793ft 204kts
15-Nov-23 13:14 27.697051 -97.214282 349 3246ft 186kts
15-Nov-23 13:15 27.748708 -97.227050 345 5480ft 209kts
15-Nov-23 13:16 27.814830 -97.242743 348 5577ft 255kts
15-Nov-23 13:16 27.872692 -97.256723 348 5512ft 255kts
15-Nov-23 13:18 27.947024 -97.257605 4 8066ft 199kts
15-Nov-23 13:19 28.003751 -97.250853 8 10383ft 204kts
15-Nov-23 13:20 28.060698 -97.242944 4 12574ft 203kts
15-Nov-23 13:21 28.120493 -97.239598 350 14450ft 208kts
15-Nov-23 13:21 28.175274 -97.249553 357 14666ft 258kts
15-Nov-23 13:22 28.248254 -97.264928 315 14907ft 273kts
15-Nov-23 13:24 28.289780 -97.335661 298 17989ft 187kts
15-Nov-23 13:24 28.300873 -97.388589 266 18564ft 232kts
15-Nov-23 13:26 28.301374 -97.466016 302 18377ft 278kts
15-Nov-23 13:27 28.260163 -97.474405 193 17423ft 283kts
15-Nov-23 13:27 28.240080 -97.536505 274 18014ft 226kts
15-Nov-23 13:28 28.245329 -97.582643 284 20065ft 175kts
15-Nov-23 13:29 28.276406 -97.623888 17 20511ft 232kts
15-Nov-23 13:30 28.290988 -97.560617 96 21399ft 176kts
15-Nov-23 13:31 28.289641 -97.507591 65 19931ft 160kts
15-Nov-23 13:33 28.330213 -97.483819 66 18187ft 162kts
15-Nov-23 13:33 28.311936 -97.456483 159 18232ft 149kts
15-Nov-23 13:34 28.288186 -97.428715 48 17830ft 115kts
15-Nov-23 13:35 28.316870 -97.416579 287 17642ft 159kts
15-Nov-23 13:36 28.301649 -97.457368 284 17402ft 105kts
15-Nov-23 13:37 28.264294 -97.462229 240 16200ft 152kts
15-Nov-23 13:38 28.265092 -97.516363 274 16449ft 159kts
15-Nov-23 13:40 28.276322 -97.555601 23 16198ft 115kts
15-Nov-23 13:40 28.291884 -97.545514 277 16138ft 116kts
15-Nov-23 13:41 28.281055 -97.586381 189 16625ft 177kts
15-Nov-23 13:42 28.290253 -97.538477 35 12532ft 260kts
15-Nov-23 13:43 28.348565 -97.489258 35 8311ft 254kts
15-Nov-23 13:44 28.413433 -97.501753 325 3651ft 239kts
15-Nov-23 13:45 28.463937 -97.537015 307 1615ft 216kts
15-Nov-23 13:46 28.487150 -97.596615 292 1480ft 216kts
15-Nov-23 13:47 28.513560 -97.665089 292 1555ft 244kts
15-Nov-23 13:48 28.564842 -97.707773 343 1518ft 244kts
15-Nov-23 13:49 28.629624 -97.710121 20 1568ft 242kts
15-Nov-23 13:50 28.632130 -97.647607 104 1356ft 221kts
15-Nov-23 13:51 28.613703 -97.587550 111 1379ft 198kts
15-Nov-23 13:52 28.623071 -97.571123 282 1190ft 122kts
15-Nov-23 13:53 28.632463 -97.609069 288 1079ft 123kts
15-Nov-23 13:54 28.621679 -97.620580 108 377ft 113kts
15-Nov-23 13:55 28.611458 -97.587431 106 723ft 125kts
15-Nov-23 13:56 28.628314 -97.588643 290 1154ft 114kts
15-Nov-23 13:57 28.636724 -97.624092 243 968ft 109kts
15-Nov-23 13:58 28.618807 -97.611129 108 345ft 99kts
15-Nov-23 13:59 28.620591 -97.579470 353 1076ft 129kts
15-Nov-23 14:00 28.634979 -97.613570 292 1074ft 125kts
15-Nov-23 14:01 28.620598 -97.616926 110 329ft 105kts
15-Nov-23 14:02 28.609071 -97.581377 115 1176ft 145kts
15-Nov-23 14:03 28.568249 -97.550121 147 2778ft 222kts
15-Nov-23 14:04 28.511842 -97.505375 145 2323ft 254kts
15-Nov-23 14:05 28.451626 -97.468091 152 2429ft 245kts
15-Nov-23 14:06 28.391557 -97.431402 151 2369ft 248kts
15-Nov-23 14:07 28.331953 -97.392912 149 2378ft 245kts
15-Nov-23 14:08 28.273502 -97.352296 147 2376ft 245kts
15-Nov-23 14:09 28.215381 -97.311306 150 2322ft 247kts
15-Nov-23 14:10 28.155947 -97.272625 150 2356ft 246kts
15-Nov-23 14:11 28.096409 -97.234769 150 2394ft 245kts
15-Nov-23 14:12 28.037935 -97.194241 150 2305ft 248kts
15-Nov-23 14:13 27.977890 -97.156633 151 2368ft 245kts
15-Nov-23 14:14 27.919186 -97.117360 147 1912ft 246kts
15-Nov-23 14:15 27.863438 -97.123556 229 869ft 232kts
15-Nov-23 14:16 27.816176 -97.172768 186 851ft 239kts
15-Nov-23 14:17 27.750696 -97.175841 212 839ft 235kts
15-Nov-23 14:18 27.731565 -97.240601 257 889ft 214kts
15-Nov-23 14:19 27.713889 -97.301426 209 843ft 201kts
15-Nov-23 14:20 27.688694 -97.266076 12 832ft 137kts
15-Nov-23 14:21 27.710706 -97.290596 274 550ft 105kts
15-Nov-23 14:22 27.690155 -97.286004 137 23ft 64kts
15-Nov-23 14:23 27.686390 -97.280260 28 22ft 7kts

Navigation Log

Ident Type
Flight plan parsing failed, navigation log unavailable